createdAt,value
2023-05-04T00:01:25.779Z,102554.72
2023-05-04T00:03:52.575Z,102542.97
2023-05-04T00:06:19.175Z,102548.13
2023-05-04T00:08:45.560Z,102549.19
2023-05-04T00:11:12.070Z,102542.59
2023-05-04T00:13:38.537Z,102541.31
2023-05-04T00:16:05.332Z,102545.47
2023-05-04T00:18:32.072Z,102549.22
2023-05-04T00:20:58.526Z,102527.03
2023-05-04T00:23:24.907Z,102530.78
2023-05-04T00:25:51.383Z,102525.84
2023-05-04T00:28:17.732Z,102526.88
2023-05-04T00:30:44.170Z,102523.38
2023-05-04T00:33:10.986Z,102519.16
2023-05-04T00:35:37.468Z,102514.72
2023-05-04T00:38:04.975Z,102506.13
2023-05-04T00:40:31.482Z,102506.72
2023-05-04T00:42:57.853Z,102506.34
2023-05-04T00:45:24.271Z,102503.19
2023-05-04T00:47:50.744Z,102499.88
2023-05-04T00:50:17.406Z,102506.69
2023-05-04T00:52:45.685Z,102508.66
2023-05-04T00:55:14.363Z,102500.31
2023-05-04T00:57:41.165Z,102494.75
2023-05-04T01:00:13.215Z,102495.78
2023-05-04T01:02:41.110Z,102498.53
2023-05-04T01:05:09.265Z,102500.41
2023-05-04T01:07:47.780Z,102495.34
2023-05-04T01:10:42.119Z,102495.91
2023-05-04T01:13:12.499Z,102490.03
2023-05-04T01:15:39.875Z,102486.66
2023-05-04T01:18:06.986Z,102486.88
2023-05-04T01:20:33.965Z,102485.22
2023-05-04T01:23:00.973Z,102481.22
2023-05-04T01:25:32.810Z,102480.84
2023-05-04T01:28:08.844Z,102486.31
2023-05-04T01:30:43.402Z,102488.69
2023-05-04T01:33:10.323Z,102484.06
2023-05-04T01:35:37.116Z,102486.34
2023-05-04T01:38:04.014Z,102488.22
2023-05-04T01:40:30.462Z,102480.59
2023-05-04T01:42:56.843Z,102478.44
2023-05-04T01:45:23.331Z,102487.31
2023-05-04T01:47:49.795Z,102484.03
2023-05-04T01:50:16.289Z,102487.75
2023-05-04T01:52:42.915Z,102482.94
2023-05-04T01:55:09.737Z,102482.28
2023-05-04T01:57:36.184Z,102482.09
2023-05-04T02:00:02.783Z,102480.25
2023-05-04T02:02:29.445Z,102476.22
2023-05-04T02:04:55.885Z,102472.63
2023-05-04T02:07:22.273Z,102474.34
2023-05-04T02:09:48.647Z,102470.75
2023-05-04T02:12:15.041Z,102465.81
2023-05-04T02:14:41.680Z,102467.47
2023-05-04T02:17:08.248Z,102456.50
2023-05-04T02:19:34.688Z,102452.50
2023-05-04T02:22:01.085Z,102458.16
2023-05-04T02:24:27.572Z,102453.59
2023-05-04T02:26:53.961Z,102452.47
2023-05-04T02:29:20.410Z,102452.47
2023-05-04T02:31:46.929Z,102454.09
2023-05-04T02:34:13.362Z,102445.88
2023-05-04T02:36:40.056Z,102450.09
2023-05-04T02:39:06.485Z,102451.03
2023-05-04T02:41:32.921Z,102449.72
2023-05-04T02:43:59.316Z,102432.69
2023-05-04T02:46:26.761Z,102445.19
2023-05-04T02:48:53.195Z,102438.50
2023-05-04T02:51:19.636Z,102436.22
2023-05-04T02:53:46.088Z,102429.66
2023-05-04T02:56:12.487Z,102428.56
2023-05-04T02:58:38.911Z,102428.66
2023-05-04T03:01:05.411Z,102427.22
2023-05-04T03:03:31.901Z,102425.66
2023-05-04T03:05:58.324Z,102426.63
2023-05-04T03:08:24.715Z,102436.31
2023-05-04T03:10:51.143Z,102433.31
2023-05-04T03:13:17.626Z,102438.47
2023-05-04T03:15:44.065Z,102437.75
2023-05-04T03:18:10.641Z,102429.53
2023-05-04T03:20:37.405Z,102418.31
2023-05-04T03:23:03.874Z,102423.25
2023-05-04T03:25:30.244Z,102419.94
2023-05-04T03:27:57.309Z,102421.09
2023-05-04T03:30:24.076Z,102417.91
2023-05-04T03:32:50.618Z,102414.91
2023-05-04T03:35:24.073Z,102413.88
2023-05-04T03:37:51.189Z,102412.66
2023-05-04T03:40:22.382Z,102409.34
2023-05-04T03:42:49.246Z,102412.34
2023-05-04T03:45:15.815Z,102407.63
2023-05-04T03:47:42.327Z,102404.31
2023-05-04T03:50:09.637Z,102401.88
2023-05-04T03:52:36.094Z,102398.97
2023-05-04T03:55:02.786Z,102397.13
2023-05-04T03:57:29.169Z,102393.50
2023-05-04T03:59:57.659Z,102394.97
2023-05-04T04:02:24.547Z,102400.72
2023-05-04T04:04:51.028Z,102395.38
2023-05-04T04:07:17.446Z,102394.56
2023-05-04T04:09:43.884Z,102392.78
2023-05-04T04:12:10.284Z,102388.56
2023-05-04T04:14:36.823Z,102395.88
2023-05-04T04:17:03.205Z,102394.44
2023-05-04T04:19:29.580Z,102387.94
2023-05-04T04:21:56.046Z,102391.22
2023-05-04T04:24:22.467Z,102395.47
2023-05-04T04:26:48.994Z,102392.69
2023-05-04T04:29:15.480Z,102396.69
2023-05-04T04:31:41.969Z,102393.91
2023-05-04T04:34:08.683Z,102383.22
2023-05-04T04:36:35.088Z,102388.97
2023-05-04T04:39:02.530Z,102384.34
2023-05-04T04:41:28.989Z,102386.38
2023-05-04T04:43:55.478Z,102388.53
2023-05-04T04:46:22.333Z,102393.06
2023-05-04T04:48:49.118Z,102381.88
2023-05-04T04:51:15.569Z,102382.47
2023-05-04T04:53:42.014Z,102383.25
2023-05-04T04:56:09.689Z,102373.91
2023-05-04T04:58:36.296Z,102381.22
2023-05-04T05:01:05.985Z,102380.78
2023-05-04T05:03:32.480Z,102382.06
2023-05-04T05:06:01.669Z,102384.22
2023-05-04T05:08:28.352Z,102380.16
2023-05-04T05:10:54.713Z,102375.25
2023-05-04T05:13:21.209Z,102374.00
2023-05-04T05:15:47.775Z,102370.22
2023-05-04T05:18:14.218Z,102372.66
2023-05-04T05:20:40.616Z,102369.75
2023-05-04T05:23:07.458Z,102370.66
2023-05-04T05:25:33.817Z,102363.59
2023-05-04T05:28:00.777Z,102362.81
2023-05-04T05:30:28.470Z,102361.91
2023-05-04T05:32:54.980Z,102362.09
2023-05-04T05:35:21.899Z,102354.13
2023-05-04T05:37:49.121Z,102356.91
2023-05-04T05:40:15.589Z,102346.72
2023-05-04T05:42:45.223Z,102351.41
2023-05-04T05:45:11.763Z,102350.31
2023-05-04T05:47:38.234Z,102351.00
2023-05-04T05:50:05.338Z,102350.75
2023-05-04T05:52:32.030Z,102353.75
2023-05-04T05:54:59.896Z,102344.19
2023-05-04T05:57:28.982Z,102348.28
2023-05-04T05:59:56.603Z,102345.03
2023-05-04T06:02:23.139Z,102334.09
2023-05-04T06:04:53.084Z,102338.44
2023-05-04T06:07:19.775Z,102329.59
2023-05-04T06:09:46.254Z,102330.31
2023-05-04T06:12:14.980Z,102325.00
2023-05-04T06:14:41.497Z,102331.63
2023-05-04T06:17:07.907Z,102327.09
2023-05-04T06:19:36.249Z,102329.06
2023-05-04T06:22:02.860Z,102319.22
2023-05-04T06:24:29.875Z,102321.41
2023-05-04T06:26:56.774Z,102322.19
2023-05-04T06:29:23.923Z,102323.88
2023-05-04T06:31:50.527Z,102323.28
2023-05-04T06:34:18.355Z,102318.44
2023-05-04T06:36:45.275Z,102322.31
2023-05-04T06:39:11.764Z,102315.94
2023-05-04T06:41:38.175Z,102311.88
2023-05-04T06:44:05.169Z,102316.03
2023-05-04T06:46:34.973Z,102313.97
2023-05-04T06:49:01.369Z,102305.41
2023-05-04T06:51:27.768Z,102297.47
2023-05-04T06:53:54.529Z,102301.84
2023-05-04T06:56:21.781Z,102301.63
2023-05-04T06:58:48.236Z,102294.25
2023-05-04T07:01:17.736Z,102297.97
2023-05-04T07:03:45.015Z,102292.50
2023-05-04T07:06:11.562Z,102284.59
2023-05-04T07:08:40.527Z,102284.38
2023-05-04T07:11:06.968Z,102276.16
2023-05-04T07:13:33.405Z,102282.16
2023-05-04T07:15:59.793Z,102283.66
2023-05-04T07:18:26.285Z,102286.25
2023-05-04T07:20:54.252Z,102276.28
2023-05-04T07:23:22.725Z,102278.97
2023-05-04T07:25:49.120Z,102268.03
2023-05-04T07:28:16.583Z,102266.88
2023-05-04T07:30:43.065Z,102262.13
2023-05-04T07:33:09.514Z,102262.97
2023-05-04T07:35:36.338Z,102263.00
2023-05-04T07:38:02.821Z,102259.34
2023-05-04T07:40:29.256Z,102254.56
2023-05-04T07:42:56.333Z,102254.25
2023-05-04T07:45:22.741Z,102253.97
2023-05-04T07:47:49.229Z,102252.19
2023-05-04T07:50:15.794Z,102262.81
2023-05-04T07:52:42.665Z,102257.25
2023-05-04T07:55:09.282Z,102252.66
2023-05-04T07:57:37.683Z,102257.09
2023-05-04T08:00:05.920Z,102250.00
2023-05-04T08:02:32.613Z,102249.13
2023-05-04T08:04:59.096Z,102252.47
2023-05-04T08:07:25.536Z,102243.09
2023-05-04T08:09:53.889Z,102240.16
2023-05-04T08:12:20.537Z,102235.63
2023-05-04T08:14:48.226Z,102227.75
2023-05-04T08:17:14.903Z,102227.06
2023-05-04T08:19:41.294Z,102225.41
2023-05-04T08:22:09.033Z,102226.97
2023-05-04T08:24:35.392Z,102219.28
2023-05-04T08:27:07.787Z,102225.31
2023-05-04T08:29:37.560Z,102220.91
2023-05-04T08:32:04.501Z,102212.41
2023-05-04T08:34:31.443Z,102206.88
2023-05-04T08:36:58.267Z,102200.34
2023-05-04T08:39:25.275Z,102202.34
2023-05-04T08:41:51.818Z,102200.88
2023-05-04T08:44:19.179Z,102187.53
2023-05-04T08:46:52.415Z,102194.31
2023-05-04T08:49:23.194Z,102189.97
2023-05-04T08:51:50.814Z,102182.03
2023-05-04T08:54:18.177Z,102182.91
2023-05-04T08:56:45.957Z,102177.78
2023-05-04T08:59:20.447Z,102173.44
2023-05-04T09:01:54.567Z,102171.47
2023-05-04T09:04:25.523Z,102176.69
2023-05-04T09:06:54.198Z,102171.88
2023-05-04T09:09:27.674Z,102173.22
2023-05-04T09:11:54.136Z,102164.31
2023-05-04T09:14:22.356Z,102166.34
2023-05-04T09:16:48.878Z,102157.06
2023-05-04T09:19:20.366Z,102156.69
2023-05-04T09:21:47.954Z,102149.03
2023-05-04T09:24:14.721Z,102151.09
2023-05-04T09:26:41.111Z,102152.56
2023-05-04T09:29:15.472Z,102144.66
2023-05-04T09:31:52.839Z,102150.00
2023-05-04T09:34:22.876Z,102140.81
2023-05-04T09:37:00.824Z,102135.38
2023-05-04T09:39:27.708Z,102141.16
2023-05-04T09:41:54.315Z,102137.63
2023-05-04T09:44:22.913Z,102138.31
2023-05-04T09:46:53.415Z,102135.97
2023-05-04T09:49:31.907Z,102132.19
2023-05-04T09:52:02.475Z,102121.38
2023-05-04T09:54:35.007Z,102122.38
2023-05-04T09:57:15.865Z,102118.75
2023-05-04T09:59:42.524Z,102112.44
2023-05-04T10:02:22.061Z,102110.97
2023-05-04T10:04:51.174Z,102118.31
2023-05-04T10:07:18.099Z,102107.03
2023-05-04T10:09:44.703Z,102107.63
2023-05-04T10:12:12.328Z,102087.59
2023-05-04T10:14:38.848Z,102090.97
2023-05-04T10:17:08.292Z,102083.47
2023-05-04T10:20:05.391Z,102084.19
2023-05-04T10:22:53.696Z,102084.03
2023-05-04T10:25:57.260Z,102075.97
2023-05-04T10:28:55.341Z,102066.03
2023-05-04T10:31:21.949Z,102067.41
2023-05-04T10:33:48.644Z,102061.84
2023-05-04T10:36:15.343Z,102057.44
2023-05-04T10:38:42.266Z,102053.22
2023-05-04T10:41:19.854Z,102053.69
2023-05-04T10:43:51.748Z,102046.53
2023-05-04T10:46:22.871Z,102041.03
2023-05-04T10:48:51.012Z,102032.44
2023-05-04T10:51:28.396Z,102029.59
2023-05-04T10:54:02.295Z,102033.97
2023-05-04T10:56:29.783Z,102024.59
2023-05-04T10:58:56.470Z,102017.03
2023-05-04T11:01:23.091Z,102008.69
2023-05-04T11:03:51.374Z,102000.72
2023-05-04T11:06:24.573Z,102001.28
2023-05-04T11:09:02.600Z,101997.47
2023-05-04T11:11:29.630Z,101996.41
2023-05-04T11:13:56.932Z,101990.28
2023-05-04T11:16:24.831Z,101984.34
2023-05-04T11:18:51.872Z,101969.75
2023-05-04T11:21:26.077Z,101975.25
2023-05-04T11:23:59.605Z,101967.72
2023-05-04T11:26:26.806Z,101970.53
2023-05-04T11:28:53.196Z,101961.38
2023-05-04T11:31:21.230Z,101950.53
2023-05-04T11:33:52.804Z,101955.66
2023-05-04T11:36:19.611Z,101952.66
2023-05-04T11:38:46.105Z,101950.44
2023-05-04T11:41:13.010Z,101933.72
2023-05-04T11:43:42.271Z,101933.16
2023-05-04T11:46:09.409Z,101934.75
2023-05-04T11:48:36.085Z,101924.06
2023-05-04T11:51:03.186Z,101928.09
2023-05-04T11:53:37.484Z,101919.34
2023-05-04T11:56:04.520Z,101920.75
2023-05-04T11:58:31.374Z,101922.00
2023-05-04T12:00:58.901Z,101918.03
2023-05-04T12:03:51.440Z,101923.28
2023-05-04T12:06:30.976Z,101924.53
2023-05-04T12:09:02.740Z,101935.00
2023-05-04T12:11:29.402Z,101916.50
2023-05-04T12:14:10.425Z,101909.47
2023-05-04T12:16:38.305Z,101907.25
2023-05-04T12:19:11.031Z,101905.63
2023-05-04T12:21:49.583Z,101906.00
2023-05-04T12:24:16.250Z,101907.34
2023-05-04T12:26:42.907Z,101908.75
2023-05-04T12:29:09.294Z,101905.22
2023-05-04T12:31:35.833Z,101906.94
2023-05-04T12:34:02.195Z,101905.69
2023-05-04T12:36:28.695Z,101901.75
2023-05-04T12:38:55.347Z,101890.44
2023-05-04T12:41:21.783Z,101881.88
2023-05-04T12:43:49.248Z,101882.75
2023-05-04T12:46:17.496Z,101869.19
2023-05-04T12:48:43.928Z,101867.03
2023-05-04T12:51:10.362Z,101868.19
2023-05-04T12:53:37.049Z,101865.31
2023-05-04T12:56:03.989Z,101857.28
2023-05-04T12:58:31.147Z,101850.91
2023-05-04T13:00:58.252Z,101844.47
2023-05-04T13:03:24.808Z,101852.25
2023-05-04T13:05:51.484Z,101831.59
2023-05-04T13:08:19.886Z,101833.97
2023-05-04T13:10:47.138Z,101838.88
2023-05-04T13:13:16.274Z,101833.34
2023-05-04T13:15:49.933Z,101834.94
2023-05-04T13:18:16.352Z,101829.66
2023-05-04T13:20:42.743Z,101819.22
2023-05-04T13:23:09.198Z,101806.31
2023-05-04T13:25:35.769Z,101815.16
2023-05-04T13:28:02.246Z,101810.97
2023-05-04T13:30:29.805Z,101799.75
2023-05-04T13:32:56.304Z,101801.69
2023-05-04T13:35:23.918Z,101796.56
2023-05-04T13:37:50.991Z,101783.81
2023-05-04T13:40:17.414Z,101782.84
2023-05-04T13:42:43.958Z,101781.03
2023-05-04T13:45:10.739Z,101774.88
2023-05-04T13:47:37.548Z,101780.75
2023-05-04T13:50:04.788Z,101774.31
2023-05-04T13:52:31.894Z,101763.09
2023-05-04T13:54:58.905Z,101756.88
2023-05-04T13:57:27.630Z,101753.09
2023-05-04T14:00:06.497Z,101750.25
2023-05-04T14:02:34.176Z,101749.78
2023-05-04T14:05:01.343Z,101734.84
2023-05-04T14:07:27.888Z,101727.38
2023-05-04T14:09:55.948Z,101735.53
2023-05-04T14:12:22.642Z,101727.13
2023-05-04T14:14:50.942Z,101719.84
2023-05-04T14:17:17.617Z,101718.38
2023-05-04T14:19:44.741Z,101718.47
2023-05-04T14:22:11.158Z,101716.38
2023-05-04T14:24:37.610Z,101708.75
2023-05-04T14:27:04.221Z,101713.34
2023-05-04T14:29:32.163Z,101694.66
2023-05-04T14:31:58.709Z,101695.78
2023-05-04T14:34:25.178Z,101695.19
2023-05-04T14:36:53.048Z,101687.66
2023-05-04T14:39:19.732Z,101689.41
2023-05-04T14:41:46.268Z,101682.78
2023-05-04T14:44:12.819Z,101682.84
2023-05-04T14:46:39.210Z,101679.34
2023-05-04T14:49:07.198Z,101687.16
2023-05-04T14:51:34.298Z,101682.06
2023-05-04T14:54:01.046Z,101675.50
2023-05-04T14:56:27.855Z,101683.34
2023-05-04T14:58:57.174Z,101681.41
2023-05-04T15:01:25.136Z,101671.28
2023-05-04T15:03:51.665Z,101669.28
2023-05-04T15:06:18.232Z,101668.19
2023-05-04T15:08:44.661Z,101655.91
2023-05-04T15:11:11.336Z,101657.47
2023-05-04T15:13:37.780Z,101666.38
2023-05-04T15:16:04.663Z,101654.16
2023-05-04T15:18:31.511Z,101652.97
2023-05-04T15:20:57.889Z,101655.81
2023-05-04T15:23:24.274Z,101656.44
2023-05-04T15:25:50.940Z,101647.94
2023-05-04T15:28:17.428Z,101644.78
2023-05-04T15:30:44.007Z,101650.53
2023-05-04T15:33:10.503Z,101642.00
2023-05-04T15:35:37.274Z,101638.94
2023-05-04T15:38:04.154Z,101646.03
2023-05-04T15:40:31.300Z,101645.72
2023-05-04T15:42:57.969Z,101647.59
2023-05-04T15:45:24.592Z,101633.91
2023-05-04T15:47:52.790Z,101639.69
2023-05-04T15:50:19.332Z,101631.06
2023-05-04T15:52:45.787Z,101634.47
2023-05-04T15:55:24.239Z,101636.09
2023-05-04T15:57:52.276Z,101627.41
2023-05-04T16:00:19.189Z,101630.28
2023-05-04T16:02:45.736Z,101625.41
2023-05-04T16:05:12.149Z,101621.72
2023-05-04T16:07:38.683Z,101622.59
2023-05-04T16:10:05.844Z,101619.72
2023-05-04T16:12:32.549Z,101605.84
2023-05-04T16:14:59.006Z,101605.53
2023-05-04T16:17:26.115Z,101611.28
2023-05-04T16:19:52.614Z,101610.22
2023-05-04T16:22:19.232Z,101591.56
2023-05-04T16:24:46.599Z,101590.19
2023-05-04T16:27:12.983Z,101595.41
2023-05-04T16:29:39.413Z,101585.06
2023-05-04T16:32:05.921Z,101585.91
2023-05-04T16:34:32.414Z,101585.25
2023-05-04T16:36:58.892Z,101586.88
2023-05-04T16:39:34.111Z,101578.19
2023-05-04T16:42:02.164Z,101575.97
2023-05-04T16:44:31.265Z,101580.63
2023-05-04T16:46:58.599Z,101574.66
2023-05-04T16:49:25.638Z,101578.09
2023-05-04T16:51:56.002Z,101585.84
2023-05-04T16:54:24.062Z,101578.19
2023-05-04T16:56:50.998Z,101577.84
2023-05-04T16:59:17.525Z,101572.50
2023-05-04T17:01:44.626Z,101569.03
2023-05-04T17:04:11.650Z,101567.97
2023-05-04T17:06:38.342Z,101564.75
2023-05-04T17:09:05.580Z,101562.84
2023-05-04T17:11:32.239Z,101553.13
2023-05-04T17:13:59.565Z,101551.56
2023-05-04T17:16:26.091Z,101555.97
2023-05-04T17:18:52.499Z,101562.72
2023-05-04T17:21:18.949Z,101562.72
2023-05-04T17:23:45.509Z,101563.78
2023-05-04T17:26:11.922Z,101563.19
2023-05-04T17:28:38.393Z,101569.91
2023-05-04T17:31:04.782Z,101569.44
2023-05-04T17:33:31.352Z,101575.41
2023-05-04T17:35:58.211Z,101583.69
2023-05-04T17:38:24.655Z,101582.22
2023-05-04T17:40:51.005Z,101593.47
2023-05-04T17:43:17.520Z,101578.53
2023-05-04T17:45:43.950Z,101580.97
2023-05-04T17:48:10.761Z,101585.66
2023-05-04T17:50:37.832Z,101581.63
2023-05-04T17:53:04.327Z,101587.59
2023-05-04T17:55:31.322Z,101582.41
2023-05-04T17:57:57.894Z,101588.25
2023-05-04T18:00:24.805Z,101595.91
2023-05-04T18:02:51.406Z,101587.84
2023-05-04T18:05:18.074Z,101588.00
2023-05-04T18:07:44.620Z,101593.25
2023-05-04T18:10:11.284Z,101586.66
2023-05-04T18:12:38.483Z,101589.59
2023-05-04T18:15:08.158Z,101587.06
2023-05-04T18:17:35.538Z,101590.50
2023-05-04T18:20:02.020Z,101601.28
2023-05-04T18:22:28.443Z,101599.75
2023-05-04T18:24:54.840Z,101598.50
2023-05-04T18:27:21.356Z,101610.03
2023-05-04T18:29:48.628Z,101613.28
2023-05-04T18:32:15.012Z,101609.09
2023-05-04T18:34:41.439Z,101617.09
2023-05-04T18:37:07.959Z,101614.09
2023-05-04T18:39:34.448Z,101612.94
2023-05-04T18:42:01.731Z,101623.31
2023-05-04T18:44:28.203Z,101621.53
2023-05-04T18:46:54.792Z,101627.03
2023-05-04T18:49:21.217Z,101616.56
2023-05-04T18:51:47.674Z,101622.84
2023-05-04T18:54:15.458Z,101616.22
2023-05-04T18:56:41.824Z,101619.13
2023-05-04T18:59:08.612Z,101621.59
2023-05-04T19:01:35.038Z,101619.47
2023-05-04T19:04:01.717Z,101618.94
2023-05-04T19:06:28.187Z,101611.50
2023-05-04T19:08:54.816Z,101616.38
2023-05-04T19:11:21.636Z,101610.94
2023-05-04T19:13:49.873Z,101615.41
2023-05-04T19:16:16.561Z,101602.16
2023-05-04T19:18:43.864Z,101605.41
2023-05-04T19:21:10.232Z,101600.56
2023-05-04T19:23:36.670Z,101600.75
2023-05-04T19:26:04.300Z,101610.25
2023-05-04T19:28:30.837Z,101601.97
2023-05-04T19:30:57.484Z,101602.81
2023-05-04T19:33:28.173Z,101612.19
2023-05-04T19:36:03.460Z,101615.25
2023-05-04T19:38:30.361Z,101614.44
2023-05-04T19:40:56.793Z,101602.81
2023-05-04T19:43:23.137Z,101605.22
2023-05-04T19:45:49.614Z,101608.28
2023-05-04T19:48:17.434Z,101605.28
2023-05-04T19:50:44.139Z,101610.94
2023-05-04T19:53:11.061Z,101607.31
2023-05-04T19:55:37.504Z,101603.06
2023-05-04T19:58:03.933Z,101600.06
2023-05-04T20:00:30.930Z,101601.66
2023-05-04T20:02:57.360Z,101597.44
2023-05-04T20:05:23.758Z,101594.78
2023-05-04T20:07:50.176Z,101594.00
2023-05-04T20:10:16.653Z,101597.25
2023-05-04T20:12:43.195Z,101596.25
2023-05-04T20:15:09.851Z,101595.84
2023-05-04T20:17:36.354Z,101593.25
2023-05-04T20:20:03.681Z,101600.69
2023-05-04T20:22:30.095Z,101599.69
2023-05-04T20:24:56.998Z,101596.28
2023-05-04T20:27:23.840Z,101587.56
2023-05-04T20:29:50.330Z,101587.78
2023-05-04T20:32:17.036Z,101590.41
2023-05-04T20:34:44.904Z,101585.34
2023-05-04T20:37:11.338Z,101581.13
2023-05-04T20:39:37.755Z,101581.50
2023-05-04T20:42:05.585Z,101581.13
2023-05-04T20:44:32.279Z,101571.22
2023-05-04T20:46:58.743Z,101567.59
2023-05-04T20:49:25.294Z,101566.97
2023-05-04T20:51:51.844Z,101565.56
2023-05-04T20:54:18.367Z,101559.72
2023-05-04T20:56:44.761Z,101561.88
2023-05-04T20:59:11.175Z,101562.47
2023-05-04T21:01:37.691Z,101551.19
2023-05-04T21:04:04.408Z,101552.75
2023-05-04T21:06:31.222Z,101550.13
2023-05-04T21:08:57.618Z,101536.44
2023-05-04T21:11:24.077Z,101544.69
2023-05-04T21:13:50.518Z,101544.28
2023-05-04T21:16:17.033Z,101536.59
2023-05-04T21:18:44.850Z,101533.13
2023-05-04T21:21:11.355Z,101538.75
2023-05-04T21:23:37.832Z,101532.50
2023-05-04T21:26:04.509Z,101539.59
2023-05-04T21:28:31.834Z,101535.72
2023-05-04T21:30:59.270Z,101529.88
2023-05-04T21:33:25.924Z,101533.88
2023-05-04T21:35:52.464Z,101526.84
2023-05-04T21:38:21.686Z,101520.16
2023-05-04T21:40:48.667Z,101528.00
2023-05-04T21:43:15.094Z,101515.69
2023-05-04T21:45:41.630Z,101521.50
2023-05-04T21:48:08.170Z,101517.88
2023-05-04T21:50:34.692Z,101515.06
2023-05-04T21:53:01.087Z,101512.41
2023-05-04T21:55:28.815Z,101512.22
2023-05-04T21:57:56.103Z,101510.81
2023-05-04T22:00:23.994Z,101514.41
2023-05-04T22:02:53.521Z,101510.00
2023-05-04T22:05:22.144Z,101516.41
2023-05-04T22:07:48.893Z,101510.59
2023-05-04T22:10:15.493Z,101507.56
2023-05-04T22:12:41.957Z,101502.31
2023-05-04T22:15:10.189Z,101503.31
2023-05-04T22:17:36.984Z,101500.31
2023-05-04T22:20:03.756Z,101499.25
2023-05-04T22:22:30.354Z,101500.00
2023-05-04T22:24:57.063Z,101498.53
2023-05-04T22:27:23.476Z,101499.47
2023-05-04T22:29:49.940Z,101496.81
2023-05-04T22:32:16.492Z,101493.81
2023-05-04T22:34:42.921Z,101503.06
2023-05-04T22:37:09.379Z,101506.88
2023-05-04T22:39:35.873Z,101505.41
2023-05-04T22:42:02.874Z,101496.91
2023-05-04T22:44:29.548Z,101499.28
2023-05-04T22:46:55.951Z,101503.81
2023-05-04T22:49:22.636Z,101496.13
2023-05-04T22:51:49.033Z,101497.25
2023-05-04T22:54:15.656Z,101486.13
2023-05-04T22:56:42.094Z,101488.31
2023-05-04T22:59:08.556Z,101485.31
2023-05-04T23:01:35.082Z,101490.97
2023-05-04T23:04:01.519Z,101492.38
2023-05-04T23:06:28.698Z,101493.81
2023-05-04T23:08:55.201Z,101503.47
2023-05-04T23:11:22.062Z,101496.56
2023-05-04T23:13:48.577Z,101505.56
2023-05-04T23:16:15.009Z,101515.03
2023-05-04T23:18:41.418Z,101510.19
2023-05-04T23:21:07.873Z,101504.09
2023-05-04T23:23:34.566Z,101502.47
2023-05-04T23:26:01.047Z,101497.78
2023-05-04T23:28:27.475Z,101507.06
2023-05-04T23:30:55.548Z,101514.25
2023-05-04T23:33:22.086Z,101522.50
2023-05-04T23:35:48.546Z,101528.69
2023-05-04T23:38:14.976Z,101523.22
2023-05-04T23:40:41.751Z,101530.88
2023-05-04T23:43:08.190Z,101527.81
2023-05-04T23:45:34.667Z,101520.63
2023-05-04T23:48:01.362Z,101521.59
2023-05-04T23:50:27.817Z,101516.19
2023-05-04T23:52:54.283Z,101524.75
2023-05-04T23:55:21.037Z,101523.41
2023-05-04T23:57:47.542Z,101525.47
